Share

Akron, CO

6:22 AM MDT on April 23, 2014 (GMT -0600)
Akron-Washington County (KAKO) Elev 4662 ft | 40.17 °N, 103.21 °W | Change Station

Current weather conditions updated 29 minutes ago

Clear
Clear
59 °F
Feels Like 59 °F
N
17
Wind Variable Wind from SSW
Sunrise 6:03 AM
Sunset 7:39 PM
Moon Last Quarter

Today is forecast to be Cooler than yesterday. Showers possible in the afternoon.

Pressure 29.40 in
Visibility 10.0 miles
Clouds Clear
Dew Point 36 °F
Humidity 42%
Rainfall 0.00 in
Snow Depth Not available.
UV 0 out of 16
Pollen 11.20 out of 12
Air Quality Not available.
Flu Activity Sporadic
METAR KAKO 231153Z AUTO 21015KT 10SM CLR 15/02 A2956 RMK AO2 SLP956 T01500022 10178 20128 56007

More Conditions Fewer Conditions

Pressure 29.40 in
Visibility 10.0 miles
Clouds Clear
Dew Point 36 °F
Humidity 42%
Rainfall 0.00 in
Snow Depth Not available.
UV 0 out of 16
Pollen 11.20 out of 12
Air Quality Not available.
Flu Activity Sporadic
METAR KAKO 231153Z AUTO 21015KT 10SM CLR 15/02 A2956 RMK AO2 SLP956 T01500022 10178 20128 56007

More Conditions Fewer Conditions

10-Day Weather Forecast

Almanac

Astronomy

Apr. 23, 2014 Rise Set
Actual Time 6:03 AM MDT 7:39 PM MDT
Civil Twilight 5:34 AM MDT 8:08 PM MDT
Nautical Twilight 5:00 AM MDT 8:43 PM MDT
Astronomical Twilight 4:23 AM MDT 9:19 PM MDT
Moon 2:36 AM MDT 1:50 PM MDT
Length of Visible Light 14h 33m
Length of Day
13h 36m
Tomorrow will be 2m 24s longer.
Last Quarter, 37% of the Moon is Illuminated
Today
Last Quarter
Apr 29
New
May 6
First Quarter
May 14
Full
May 21
Last Quarter

Today's Extremes

State Highs State Lows

Community

  • April Sunset
    April Sunset
  • Waiting..
    Waiting..
  • Sunset...
    Sunset...
  • Happy outdoor day
    Happy outdoor day
  • mystic afternoon....
    mystic afternoon....

WunderPhotos

Upload Photos

1,704,256 photos uploaded!

Nearby

Snow Depth

Station Depth Elevation
Niwot 46 in 9910 ft
University Camp 71 in 10300 ft
Lake Eldora 37 in 9700 ft
Wild Basin 45 in 9560 ft
Glen Cove 13 in 11460 ft

Coastal Water Temperatures

Place Temperature
No Stations Reporting

Earthquake Activity

City Distance Mag. Time & Date
No recent earthquake activity has been reported nearby.
Minimum magnitude displayed is 2.5.

Nearby Weather Stations

Station Location Temp. Dew Point Humidity Wind Precip. Elev Updated Type
HCN CENTRAL GREAT PLAINS AKRON 4 E CO , Akron, CO 60 °F - - North  at  - 0.00 in / hr 4542 ft 5:10 AM MDT MADIS
Northern Washington County, Akron, CO 55.9 °F 40 °F 56% SSW  at  5.3 mph - / hr 4453 ft 6:14 AM MDT Normal
HCN WOODLIN SCHOOL GENOA 35 N CO , Last Chance, CO 59 °F - - North  at  - 0.00 in / hr 4764 ft 5:20 AM MDT MADIS

Show More Stations Show Fewer Stations

What do you think?

We're not finished. Please let us know what you like, what you don't like, and what you are still missing.